createdAt,value
2023-10-24T00:00:47.404Z,7.90
2023-10-24T00:03:15.709Z,7.93
2023-10-24T00:05:45.426Z,7.33
2023-10-24T00:08:13.665Z,8.40
2023-10-24T00:10:41.982Z,8.30
2023-10-24T00:13:10.243Z,7.90
2023-10-24T00:15:38.480Z,8.17
2023-10-24T00:18:06.781Z,8.57
2023-10-24T00:20:35.154Z,9.93
2023-10-24T00:23:04.698Z,9.57
2023-10-24T00:25:33.252Z,9.00
2023-10-24T00:28:01.716Z,9.80
2023-10-24T00:30:30.032Z,8.47
2023-10-24T00:32:58.288Z,8.30
2023-10-24T00:35:26.513Z,8.93
2023-10-24T00:37:54.767Z,10.00
2023-10-24T00:40:24.388Z,9.43
2023-10-24T00:42:52.926Z,9.47
2023-10-24T00:45:21.116Z,10.13
2023-10-24T00:47:49.902Z,9.17
2023-10-24T00:50:18.649Z,8.80
2023-10-24T00:52:47.045Z,8.33
2023-10-24T00:55:17.852Z,9.20
2023-10-24T00:57:49.282Z,9.63
2023-10-24T01:00:18.856Z,9.17
2023-10-24T01:02:47.722Z,8.87
2023-10-24T01:05:17.021Z,8.30
2023-10-24T01:07:47.015Z,8.27
2023-10-24T01:10:15.362Z,8.40
2023-10-24T01:12:43.725Z,9.50
2023-10-24T01:15:13.544Z,9.50
2023-10-24T01:17:52.238Z,8.80
2023-10-24T01:20:20.767Z,10.10
2023-10-24T01:22:50.355Z,11.27
2023-10-24T01:25:19.820Z,10.80
2023-10-24T01:27:55.282Z,10.40
2023-10-24T01:30:24.046Z,10.70
2023-10-24T01:32:52.407Z,11.33
2023-10-24T01:35:20.909Z,10.73
2023-10-24T01:37:50.467Z,11.10
2023-10-24T01:40:19.010Z,11.40
2023-10-24T01:42:47.255Z,10.67
2023-10-24T01:45:16.794Z,11.37
2023-10-24T01:47:45.326Z,9.93
2023-10-24T01:50:14.267Z,9.20
2023-10-24T01:52:42.575Z,12.30
2023-10-24T01:55:12.315Z,10.47
2023-10-24T01:57:40.550Z,11.07
2023-10-24T02:00:10.020Z,11.73
2023-10-24T02:02:40.965Z,11.90
2023-10-24T02:05:11.114Z,11.77
2023-10-24T02:07:39.388Z,11.33
2023-10-24T02:10:08.912Z,12.03
2023-10-24T02:12:38.460Z,11.83
2023-10-24T02:15:07.281Z,10.20
2023-10-24T02:17:35.743Z,9.93
2023-10-24T02:20:05.381Z,12.60
2023-10-24T02:22:34.075Z,11.53
2023-10-24T02:25:02.697Z,12.40
2023-10-24T02:27:30.966Z,11.47
2023-10-24T02:30:00.669Z,11.93
2023-10-24T02:32:29.291Z,12.37
2023-10-24T02:34:57.656Z,12.67
2023-10-24T02:37:26.048Z,13.00
2023-10-24T02:39:54.252Z,12.40
2023-10-24T02:42:22.572Z,14.90
2023-10-24T02:44:51.264Z,12.20
2023-10-24T02:47:20.927Z,13.90
2023-10-24T02:49:49.247Z,12.60
2023-10-24T02:52:18.399Z,11.70
2023-10-24T02:54:46.625Z,11.00
2023-10-24T02:57:14.859Z,11.63
2023-10-24T02:59:43.053Z,12.70
2023-10-24T03:02:11.345Z,13.13
2023-10-24T03:04:41.211Z,12.30
2023-10-24T03:07:09.750Z,12.33
2023-10-24T03:09:37.970Z,14.10
2023-10-24T03:12:10.782Z,14.03
2023-10-24T03:14:39.266Z,12.60
2023-10-24T03:17:07.839Z,13.13
2023-10-24T03:19:36.252Z,12.20
2023-10-24T03:22:05.930Z,12.80
2023-10-24T03:24:34.128Z,11.63
2023-10-24T03:27:02.367Z,13.40
2023-10-24T03:29:30.594Z,11.73
2023-10-24T03:31:59.019Z,12.60
2023-10-24T03:34:27.950Z,13.10
2023-10-24T03:36:56.183Z,12.73
2023-10-24T03:39:26.340Z,12.47
2023-10-24T03:41:54.578Z,11.90
2023-10-24T03:44:23.558Z,12.03
2023-10-24T03:46:51.927Z,12.10
2023-10-24T03:49:20.355Z,12.50
2023-10-24T03:51:48.865Z,11.70
2023-10-24T03:54:17.154Z,13.50
2023-10-24T03:56:46.719Z,11.00
2023-10-24T03:59:14.930Z,13.03
2023-10-24T04:01:43.194Z,12.57
2023-10-24T04:04:11.434Z,11.43
2023-10-24T04:06:39.985Z,13.27
2023-10-24T04:09:08.256Z,11.03
2023-10-24T04:11:36.573Z,11.70
2023-10-24T04:14:06.214Z,11.87
2023-10-24T04:16:34.680Z,11.53
2023-10-24T04:19:03.417Z,11.73
2023-10-24T04:21:31.555Z,12.87
2023-10-24T04:24:00.107Z,12.27
2023-10-24T04:26:28.349Z,13.07
2023-10-24T04:28:56.984Z,13.90
2023-10-24T04:31:26.644Z,11.97
2023-10-24T04:33:55.090Z,13.00
2023-10-24T04:36:23.404Z,11.77
2023-10-24T04:38:51.597Z,10.77
2023-10-24T04:41:19.789Z,12.60
2023-10-24T04:43:48.014Z,11.60
2023-10-24T04:46:16.295Z,10.30
2023-10-24T04:48:45.877Z,12.10
2023-10-24T04:51:14.132Z,11.07
2023-10-24T04:53:42.338Z,11.13
2023-10-24T04:56:10.544Z,11.37
2023-10-24T04:58:38.827Z,11.00
2023-10-24T05:01:07.101Z,9.50
2023-10-24T05:03:35.669Z,11.47
2023-10-24T05:06:05.541Z,11.07
2023-10-24T05:08:33.734Z,12.50
2023-10-24T05:11:01.977Z,11.60
2023-10-24T05:13:30.300Z,12.53
2023-10-24T05:15:58.999Z,13.23
2023-10-24T05:18:27.299Z,12.70
2023-10-24T05:20:55.534Z,10.67
2023-10-24T05:23:25.127Z,11.23
2023-10-24T05:25:53.400Z,12.40
2023-10-24T05:28:21.720Z,12.97
2023-10-24T05:30:50.081Z,13.60
2023-10-24T05:33:18.340Z,12.03
2023-10-24T05:35:50.254Z,12.30
2023-10-24T05:38:18.546Z,14.37
2023-10-24T05:40:48.134Z,13.00
2023-10-24T05:43:16.588Z,13.40
2023-10-24T05:45:44.999Z,12.23
2023-10-24T05:48:13.297Z,13.13
2023-10-24T05:50:41.510Z,12.80
2023-10-24T05:53:09.732Z,13.40
2023-10-24T05:55:37.982Z,13.70
2023-10-24T05:58:07.549Z,12.90
2023-10-24T06:00:35.771Z,13.90
2023-10-24T06:03:04.077Z,12.60
2023-10-24T06:05:32.370Z,12.20
2023-10-24T06:08:00.861Z,13.80
2023-10-24T06:10:29.104Z,12.53
2023-10-24T06:12:57.294Z,14.10
2023-10-24T06:15:26.829Z,13.80
2023-10-24T06:17:56.486Z,13.67
2023-10-24T06:20:24.819Z,13.00
2023-10-24T06:22:53.185Z,14.17
2023-10-24T06:25:21.822Z,12.97
2023-10-24T06:27:50.121Z,12.57
2023-10-24T06:30:18.776Z,13.30
2023-10-24T06:32:48.355Z,15.73
2023-10-24T06:35:17.015Z,14.67
2023-10-24T06:37:45.338Z,14.30
2023-10-24T06:40:13.770Z,13.77
2023-10-24T06:42:42.089Z,14.13
2023-10-24T06:45:12.052Z,12.70
2023-10-24T06:47:41.972Z,13.00
2023-10-24T06:50:12.022Z,15.50
2023-10-24T06:52:43.259Z,13.10
2023-10-24T06:55:11.755Z,13.07
2023-10-24T06:57:40.007Z,13.83
2023-10-24T07:00:10.015Z,15.53
2023-10-24T07:02:38.716Z,12.77
2023-10-24T07:05:07.434Z,14.27
2023-10-24T07:07:37.195Z,12.60
2023-10-24T07:10:05.975Z,12.33
2023-10-24T07:12:34.192Z,16.20
2023-10-24T07:15:04.706Z,12.40
2023-10-24T07:17:33.058Z,15.17
2023-10-24T07:20:01.520Z,14.23
2023-10-24T07:22:30.976Z,15.67
2023-10-24T07:25:00.567Z,13.43
2023-10-24T07:27:28.962Z,15.57
2023-10-24T07:29:57.172Z,15.73
2023-10-24T07:32:25.466Z,13.87
2023-10-24T07:34:57.439Z,14.00
2023-10-24T07:37:26.125Z,14.30
2023-10-24T07:39:55.336Z,15.03
2023-10-24T07:42:24.963Z,13.20
2023-10-24T07:44:54.639Z,14.67
2023-10-24T07:47:23.084Z,13.57
2023-10-24T07:49:52.039Z,13.93
2023-10-24T07:52:20.561Z,14.60
2023-10-24T07:54:48.829Z,12.10
2023-10-24T07:57:17.118Z,13.83
2023-10-24T07:59:46.712Z,14.10
2023-10-24T08:02:14.997Z,15.37
2023-10-24T08:04:43.349Z,14.60
2023-10-24T08:07:11.771Z,13.20
2023-10-24T08:09:40.298Z,13.60
2023-10-24T08:12:09.389Z,13.93
2023-10-24T08:14:37.652Z,13.97
2023-10-24T08:17:07.458Z,12.73
2023-10-24T08:19:35.881Z,13.37
2023-10-24T08:22:04.252Z,12.60
2023-10-24T08:24:32.518Z,13.07
2023-10-24T08:27:11.189Z,13.40
2023-10-24T08:29:40.549Z,12.73
2023-10-24T08:32:14.853Z,14.67
2023-10-24T08:34:44.718Z,13.10
2023-10-24T08:37:13.233Z,12.77
2023-10-24T08:39:41.699Z,13.57
2023-10-24T08:42:12.284Z,15.40
2023-10-24T08:44:42.701Z,13.67
2023-10-24T08:47:13.966Z,13.27
2023-10-24T08:49:43.057Z,12.83
2023-10-24T08:52:29.268Z,14.03
2023-10-24T08:55:00.769Z,14.70
2023-10-24T08:57:32.062Z,13.33
2023-10-24T09:00:02.252Z,14.47
2023-10-24T09:02:32.824Z,14.07
2023-10-24T09:05:02.608Z,13.87
2023-10-24T09:07:31.243Z,14.03
2023-10-24T09:09:59.474Z,13.40
2023-10-24T09:12:31.100Z,13.57
2023-10-24T09:15:00.327Z,13.60
2023-10-24T09:17:32.236Z,12.50
2023-10-24T09:20:04.703Z,14.93
2023-10-24T09:22:33.138Z,13.40
2023-10-24T09:25:03.051Z,12.67
2023-10-24T09:27:31.411Z,15.00
2023-10-24T09:30:16.191Z,13.50
2023-10-24T09:32:47.209Z,14.10
2023-10-24T09:35:16.900Z,13.80
2023-10-24T09:37:47.871Z,14.30
2023-10-24T09:40:16.247Z,13.47
2023-10-24T09:42:44.804Z,14.30
2023-10-24T09:45:14.175Z,14.10
2023-10-24T09:47:45.088Z,13.40
2023-10-24T09:50:15.805Z,12.40
2023-10-24T09:52:46.290Z,13.90
2023-10-24T09:55:15.252Z,15.17
2023-10-24T09:57:45.419Z,14.80
2023-10-24T10:00:16.362Z,14.67
2023-10-24T10:02:47.681Z,14.37
2023-10-24T10:05:17.028Z,14.57
2023-10-24T10:07:51.195Z,15.53
2023-10-24T10:10:21.198Z,13.10
2023-10-24T10:12:50.852Z,15.00
2023-10-24T10:15:40.291Z,14.77
2023-10-24T10:18:18.769Z,14.40
2023-10-24T10:20:58.284Z,15.40
2023-10-24T10:23:53.551Z,13.00
2023-10-24T10:26:26.157Z,13.73
2023-10-24T10:29:22.811Z,14.07
2023-10-24T10:32:38.566Z,12.73
2023-10-24T10:34:57.251Z,11.83
2023-10-24T10:37:31.714Z,13.27
2023-10-24T10:40:29.116Z,12.00
2023-10-24T10:42:57.805Z,11.33
2023-10-24T10:45:27.744Z,11.70
2023-10-24T10:47:58.871Z,10.53
2023-10-24T10:50:30.004Z,11.20
2023-10-24T10:53:03.493Z,12.17
2023-10-24T10:56:05.740Z,11.20
2023-10-24T10:58:48.893Z,10.07
2023-10-24T11:01:29.397Z,11.73
2023-10-24T11:03:59.127Z,11.20
2023-10-24T11:06:29.127Z,10.50
2023-10-24T11:09:11.684Z,10.13
2023-10-24T11:11:41.549Z,10.10
2023-10-24T11:14:17.710Z,10.17
2023-10-24T11:16:47.848Z,9.13
2023-10-24T11:19:20.438Z,10.33
2023-10-24T11:21:49.447Z,8.77
2023-10-24T11:24:21.122Z,8.10
2023-10-24T11:26:50.978Z,8.37
2023-10-24T11:29:19.227Z,8.83
2023-10-24T11:31:50.366Z,8.73
2023-10-24T11:34:20.477Z,8.73
2023-10-24T11:36:48.856Z,7.70
2023-10-24T11:39:17.256Z,9.00
2023-10-24T11:41:46.224Z,8.87
2023-10-24T11:44:17.224Z,7.73
2023-10-24T11:46:46.689Z,8.47
2023-10-24T11:49:15.057Z,7.63
2023-10-24T11:51:43.332Z,8.17
2023-10-24T11:54:13.646Z,8.37
2023-10-24T11:56:42.547Z,9.00
2023-10-24T11:59:12.603Z,7.60
2023-10-24T12:01:44.622Z,7.90
2023-10-24T12:04:14.516Z,8.00
2023-10-24T12:06:42.834Z,8.50
2023-10-24T12:09:11.191Z,8.83
2023-10-24T12:11:39.436Z,8.20
2023-10-24T12:14:07.762Z,8.07
2023-10-24T12:16:51.608Z,7.80
2023-10-24T12:19:26.359Z,8.87
2023-10-24T12:21:55.822Z,7.90
2023-10-24T12:24:24.348Z,9.37
2023-10-24T12:26:52.507Z,8.10
2023-10-24T12:29:20.681Z,8.30
2023-10-24T12:31:49.096Z,8.70
2023-10-24T12:34:17.400Z,10.27
2023-10-24T12:36:48.201Z,8.07
2023-10-24T12:39:18.550Z,9.93
2023-10-24T12:41:46.880Z,8.57
2023-10-24T12:44:15.195Z,8.87
2023-10-24T12:46:43.719Z,9.37
2023-10-24T12:49:12.128Z,8.93
2023-10-24T12:51:41.206Z,9.30
2023-10-24T12:54:10.820Z,7.77
2023-10-24T12:56:39.190Z,8.50
2023-10-24T12:59:07.474Z,7.47
2023-10-24T13:01:36.159Z,8.20
2023-10-24T13:04:05.018Z,7.63
2023-10-24T13:06:34.549Z,8.97
2023-10-24T13:09:03.427Z,8.20
2023-10-24T13:11:33.130Z,8.60
2023-10-24T13:14:01.487Z,9.63
2023-10-24T13:16:29.864Z,8.60
2023-10-24T13:19:17.874Z,8.87
2023-10-24T13:21:46.249Z,7.87
2023-10-24T13:24:14.523Z,9.03
2023-10-24T13:26:44.208Z,8.83
2023-10-24T13:29:12.723Z,10.23
2023-10-24T13:31:41.918Z,8.20
2023-10-24T13:36:41.921Z,9.27
2023-10-24T13:39:11.761Z,9.53
2023-10-24T13:41:39.982Z,9.63
2023-10-24T13:44:09.732Z,9.50
2023-10-24T13:46:38.201Z,9.03
2023-10-24T13:49:07.092Z,8.00
2023-10-24T13:51:36.438Z,9.10
2023-10-24T13:54:05.861Z,8.93
2023-10-24T13:56:34.406Z,8.87
2023-10-24T13:59:02.763Z,9.77
2023-10-24T14:01:33.160Z,9.37
2023-10-24T14:04:02.692Z,9.37
2023-10-24T14:06:31.084Z,9.67
2023-10-24T14:08:59.457Z,10.97
2023-10-24T14:11:27.881Z,10.60
2023-10-24T14:13:56.147Z,9.70
2023-10-24T14:16:24.473Z,9.70
2023-10-24T14:18:54.053Z,9.20
2023-10-24T14:21:22.237Z,10.03
2023-10-24T14:23:50.532Z,9.57
2023-10-24T14:26:19.338Z,11.27
2023-10-24T14:28:47.595Z,9.33
2023-10-24T14:31:15.899Z,8.90
2023-10-24T14:33:44.283Z,11.50
2023-10-24T14:36:13.888Z,10.70
2023-10-24T14:38:42.106Z,10.40
2023-10-24T14:41:10.403Z,10.40
2023-10-24T14:43:38.625Z,9.23
2023-10-24T14:46:06.977Z,8.80
2023-10-24T14:48:37.968Z,9.90
2023-10-24T14:51:06.656Z,8.50
2023-10-24T14:53:36.430Z,11.03
2023-10-24T14:56:05.490Z,8.67
2023-10-24T14:58:34.251Z,10.13
2023-10-24T15:01:03.743Z,11.00
2023-10-24T15:03:32.073Z,8.80
2023-10-24T15:06:00.405Z,9.73
2023-10-24T15:08:28.634Z,10.90
2023-10-24T15:10:58.216Z,9.23
2023-10-24T15:13:26.810Z,10.63
2023-10-24T15:15:55.100Z,10.37
2023-10-24T15:18:23.392Z,11.43
2023-10-24T15:20:51.707Z,11.30
2023-10-24T15:23:20.085Z,10.63
2023-10-24T15:25:48.379Z,10.73
2023-10-24T15:28:17.973Z,9.80
2023-10-24T15:30:46.317Z,9.93
2023-10-24T15:33:14.869Z,11.67
2023-10-24T15:35:44.323Z,10.97
2023-10-24T15:38:12.608Z,9.13
2023-10-24T15:40:41.140Z,8.67
2023-10-24T15:43:09.486Z,9.60
2023-10-24T15:45:39.170Z,9.07
2023-10-24T15:48:16.953Z,10.97
2023-10-24T15:50:45.554Z,10.70
2023-10-24T15:53:13.840Z,9.60
2023-10-24T15:55:42.187Z,10.10
2023-10-24T15:58:10.390Z,10.50
2023-10-24T16:00:40.481Z,10.63
2023-10-24T16:03:08.840Z,11.13
2023-10-24T16:05:37.117Z,10.27
2023-10-24T16:08:05.816Z,10.20
2023-10-24T16:10:34.333Z,10.00
2023-10-24T16:13:02.712Z,12.30
2023-10-24T16:15:30.939Z,11.10
2023-10-24T16:18:00.805Z,11.27
2023-10-24T16:20:29.223Z,10.87
2023-10-24T16:22:57.608Z,10.83
2023-10-24T16:25:25.842Z,10.70
2023-10-24T16:27:56.288Z,11.67
2023-10-24T16:30:24.542Z,12.87
2023-10-24T16:32:54.509Z,13.70
2023-10-24T16:35:24.274Z,12.67
2023-10-24T16:37:52.571Z,13.40
2023-10-24T16:40:20.842Z,14.87
2023-10-24T16:42:49.186Z,12.00
2023-10-24T16:45:18.943Z,13.27
2023-10-24T16:47:47.803Z,13.97
2023-10-24T16:50:17.182Z,12.87
2023-10-24T16:52:46.935Z,13.00
2023-10-24T16:55:15.397Z,13.80
2023-10-24T16:57:44.027Z,12.93
2023-10-24T17:00:15.744Z,15.33
2023-10-24T17:02:44.355Z,11.73
2023-10-24T17:05:12.752Z,13.63
2023-10-24T17:07:43.515Z,15.03
2023-10-24T17:10:14.604Z,14.20
2023-10-24T17:12:42.913Z,15.47
2023-10-24T17:15:13.026Z,14.97
2023-10-24T17:17:41.677Z,15.80
2023-10-24T17:20:10.954Z,13.57
2023-10-24T17:22:39.216Z,15.80
2023-10-24T17:25:08.201Z,15.10
2023-10-24T17:27:38.899Z,14.60
2023-10-24T17:30:08.645Z,13.60
2023-10-24T17:32:37.771Z,12.87
2023-10-24T17:35:06.622Z,14.60
2023-10-24T17:37:34.878Z,12.23
2023-10-24T17:40:06.797Z,14.57
2023-10-24T17:42:37.341Z,15.17
2023-10-24T17:45:08.143Z,16.17
2023-10-24T17:47:36.367Z,15.63
2023-10-24T17:50:05.411Z,14.37
2023-10-24T17:52:33.677Z,14.87
2023-10-24T17:55:02.042Z,15.87
2023-10-24T17:57:30.489Z,14.00
2023-10-24T17:59:58.783Z,17.67
2023-10-24T18:02:28.809Z,15.70
2023-10-24T18:04:57.122Z,14.60
2023-10-24T18:07:28.295Z,14.73
2023-10-24T18:09:57.253Z,16.57
2023-10-24T18:12:25.530Z,16.70
2023-10-24T18:14:53.849Z,17.60
2023-10-24T18:17:22.240Z,17.77
2023-10-24T18:19:52.385Z,16.17
2023-10-24T18:22:20.645Z,18.90
2023-10-24T18:24:48.892Z,16.70
2023-10-24T18:27:17.111Z,18.30
2023-10-24T18:29:47.962Z,18.60
2023-10-24T18:32:16.192Z,16.63
2023-10-24T18:34:45.857Z,19.00
2023-10-24T18:37:17.452Z,18.57
2023-10-24T18:39:45.661Z,17.90
2023-10-24T18:42:14.373Z,20.90
2023-10-24T18:44:43.229Z,20.63
2023-10-24T18:47:11.682Z,18.60
2023-10-24T18:49:40.049Z,17.03
2023-10-24T18:52:08.889Z,20.40
2023-10-24T18:54:38.811Z,16.80
2023-10-24T18:57:07.048Z,18.50
2023-10-24T18:59:35.761Z,17.60
2023-10-24T19:02:04.753Z,17.83
2023-10-24T19:04:36.302Z,16.87
2023-10-24T19:10:24.917Z,17.83
2023-10-24T19:12:53.805Z,17.07
2023-10-24T19:15:22.969Z,18.70
2023-10-24T19:17:51.866Z,16.80
2023-10-24T19:20:20.490Z,16.93
2023-10-24T19:22:49.516Z,18.00
2023-10-24T19:25:18.183Z,16.90
2023-10-24T19:27:48.552Z,18.17
2023-10-24T19:30:17.896Z,17.20
2023-10-24T19:32:46.673Z,17.30
2023-10-24T19:35:15.837Z,17.03
2023-10-24T19:37:47.835Z,15.70
2023-10-24T19:40:17.096Z,19.17
2023-10-24T19:42:46.734Z,15.90
2023-10-24T19:45:17.740Z,16.83
2023-10-24T19:47:51.051Z,15.90
2023-10-24T19:50:20.069Z,17.83
2023-10-24T19:52:48.975Z,15.47
2023-10-24T19:57:51.088Z,15.63
2023-10-24T20:00:21.860Z,14.97
2023-10-24T20:02:51.655Z,14.10
2023-10-24T20:05:20.692Z,15.10
2023-10-24T20:07:54.115Z,16.23
2023-10-24T20:12:31.336Z,14.97
2023-10-24T20:13:18.822Z,14.03
2023-10-24T20:15:49.159Z,14.00
2023-10-24T20:18:17.920Z,14.37
2023-10-24T20:20:48.539Z,13.50
2023-10-24T20:23:18.486Z,16.40
2023-10-24T20:25:47.400Z,15.30
2023-10-24T20:28:15.610Z,15.43
2023-10-24T20:30:43.973Z,15.37
2023-10-24T20:33:13.867Z,15.03
2023-10-24T20:35:42.379Z,14.57
2023-10-24T20:38:10.610Z,16.67
2023-10-24T20:40:39.377Z,15.93
2023-10-24T20:43:07.606Z,15.80
2023-10-24T20:45:36.149Z,14.90
2023-10-24T20:48:04.445Z,15.83
2023-10-24T20:50:33.990Z,19.80
2023-10-24T20:53:02.308Z,18.17
2023-10-24T20:55:30.512Z,17.00
2023-10-24T20:57:58.880Z,18.27
2023-10-24T21:00:27.394Z,19.57
2023-10-24T21:02:56.082Z,17.20
2023-10-24T21:05:24.308Z,18.47
2023-10-24T21:07:53.829Z,16.97
2023-10-24T21:10:22.116Z,17.97
2023-10-24T21:12:51.650Z,17.10
2023-10-24T21:15:20.061Z,19.77
2023-10-24T21:17:48.295Z,19.10
2023-10-24T21:20:16.727Z,16.90
2023-10-24T21:22:45.357Z,17.10
2023-10-24T21:25:14.958Z,16.87
2023-10-24T21:27:43.314Z,16.63
2023-10-24T21:30:11.937Z,14.80
2023-10-24T21:32:40.462Z,18.00
2023-10-24T21:35:09.655Z,16.57
2023-10-24T21:37:37.844Z,17.47
2023-10-24T21:40:11.856Z,16.63
2023-10-24T21:42:42.655Z,14.70
2023-10-24T21:45:11.690Z,16.97
2023-10-24T21:47:39.931Z,19.33
2023-10-24T21:50:08.881Z,15.10
2023-10-24T21:52:37.152Z,14.90
2023-10-24T21:55:07.970Z,17.03
2023-10-24T21:57:36.286Z,15.33
2023-10-24T22:00:09.792Z,16.53
2023-10-24T22:02:41.175Z,15.43
2023-10-24T22:05:09.809Z,14.93
2023-10-24T22:07:38.050Z,17.60
2023-10-24T22:10:07.722Z,14.43
2023-10-24T22:12:36.071Z,15.10
2023-10-24T22:15:06.320Z,15.33
2023-10-24T22:17:34.624Z,16.30
2023-10-24T22:20:02.840Z,16.33
2023-10-24T22:22:31.076Z,14.33
2023-10-24T22:24:59.478Z,14.63
2023-10-24T22:27:27.695Z,14.80
2023-10-24T22:29:55.947Z,15.90
2023-10-24T22:32:25.506Z,15.03
2023-10-24T22:34:53.828Z,14.37
2023-10-24T22:37:22.322Z,15.33
2023-10-24T22:39:50.562Z,16.60
2023-10-24T22:42:18.873Z,16.70
2023-10-24T22:44:47.163Z,16.93
2023-10-24T22:47:15.399Z,16.70
2023-10-24T22:49:45.044Z,15.47
2023-10-24T22:52:13.319Z,17.40
2023-10-24T22:54:41.564Z,18.50
2023-10-24T22:57:09.872Z,16.07
2023-10-24T22:59:38.066Z,18.70
2023-10-24T23:02:06.361Z,16.97
2023-10-24T23:04:35.268Z,18.80
2023-10-24T23:07:05.179Z,17.20
2023-10-24T23:09:33.748Z,18.20
2023-10-24T23:12:03.590Z,15.67
2023-10-24T23:14:33.652Z,16.17
2023-10-24T23:17:01.861Z,17.70
2023-10-24T23:19:30.078Z,17.33
2023-10-24T23:21:58.326Z,17.60
2023-10-24T23:24:27.920Z,18.20
2023-10-24T23:26:56.128Z,16.70
2023-10-24T23:29:24.509Z,16.60
2023-10-24T23:31:52.804Z,16.83
2023-10-24T23:34:21.019Z,16.90
2023-10-24T23:36:49.258Z,17.30
2023-10-24T23:39:17.917Z,15.03
2023-10-24T23:41:47.547Z,16.60
2023-10-24T23:44:15.884Z,17.43
2023-10-24T23:46:44.180Z,15.40
2023-10-24T23:49:12.436Z,16.50
2023-10-24T23:51:40.709Z,14.47
2023-10-24T23:54:11.394Z,14.00
2023-10-24T23:56:41.615Z,15.33
2023-10-24T23:59:11.152Z,12.67
